Войти Поиск

Статистика игрока

2,052 игроков отображено, всего - 2,144

Последнее обновление: 2019-10-14 11:00:02 MSK

Ранг

Игрок

Убийств

Смертей

Уб/См

УГ

УГ в %

Время онлайн

Активность

Навык

252 Разница: +1 dz ZOUMBA 287 347 0.83 121 42.16% 14:28:27 816.39 Разница: +0.95
187 Разница: +1 sk Zacsi420 467 437 1.07 148 31.69% 14:25:23 1027.90 Разница: +3.68
219 Разница: +1 ro provider cj 283 165 1.72 373 131.80% 14:25:16 897.20 Разница: +16.33
319 Разница: +1 it TheVictorPro 178 388 0.46 66 37.08% 13:53:26 643.53 Разница: +8.17
151 Разница: +1 de 441 556 518 1.07 281 50.54% 13:47:08 1152.27 Разница: +5.89
66 Разница: +1 lv Solid 729 463 1.57 401 55.01% 13:42:10 1726.73 Разница: -43.13
155 Разница: +1 dz Casper 424 375 1.13 106 25.00% 13:41:56 1118.45 Разница: +2.07
381 Разница: +3 ro Benedek 206 197 1.05 217 105.34% 13:37:16 548.15 Разница: -4.68
99 Разница: +1 ru Bad_(0_0)_Robot 574 435 1.32 278 48.43% 13:27:24 1480.44 Разница: +12.54
428 Разница: +1 pk Faisal Nouman 92 133 0.69 281 305.43% 13:12:10 486.71 Разница: -4.60
40 Разница: -1 uz 40.gif slomannaya devochka 1,039 371 2.80 220 21.17% 13:11:46 2140.15 Разница: -7.29
439 Разница: +1 fr noeil 109 82 1.33 349 320.18% 12:56:07 474.79 без изменений
216 Разница: +1 ir Windows User 334 288 1.16 221 66.17% 12:44:42 903.60 Разница: +20.77
215 Разница: +1 tr CiciKusSever31 360 368 0.98 183 50.83% 12:38:48 903.90 без изменений
129 Разница: +1 cz ☣ TetraPack 701 270 2.60 986 140.66% 12:33:18 1256.58 Разница: +4.27
163 Разница: +1 dz David 362 360 1.01 113 31.22% 12:32:47 1092.57 Разница: +11.75
954 Разница: -1 ve LAFF 12 60 0.20 32 266.67% 12:32:37 197.62 Разница: +19.31
190 Разница: +1 ru 3210 513 363 1.41 439 85.58% 12:25:43 1008.88 без изменений
264 Разница: +2 mk MartinDimeski 275 437 0.63 118 42.91% 12:22:07 763.97 Разница: -4.16
561 Разница: +2 us chintan.vithlani@gmail.com 141 346 0.41 183 129.79% 12:03:24 373.55 без изменений
576 Разница: +2 de ExBox 121 345 0.35 66 54.55% 11:54:54 364.50 без изменений
1167 Разница: +1 bo GhostRider 15 58 0.26 44 293.33% 11:53:35 156.07 без изменений
754 Разница: +3 ma Home Sweet Home 88 403 0.22 33 37.50% 11:53:11 270.45 Разница: +11.58
153 Разница: +1 ru Enjoy 661 268 2.47 704 106.51% 11:45:21 1132.47 Разница: -20.83
143 Разница: +1 es Llauraor 462 363 1.27 198 42.86% 11:43:43 1186.63 Разница: +1.17
447 Разница: +1 hr SARA 99 278 0.36 63 63.64% 11:35:32 465.80 Разница: +10.79
402 Разница: +3 gb SSBB 278 350 0.79 440 158.27% 11:34:31 522.95 Разница: +8.78
637 Разница: +2 th admin 43 92 0.47 124 288.37% 11:18:44 322.96 Разница: -4.09
233 Разница: +1 mk ᴀ ʀ ɢ ᴏ s 326 318 1.03 231 70.86% 11:17:59 856.84 Разница: +28.57
235 Разница: +1 hu Anna 282 322 0.88 125 44.33% 11:17:07 853.12 Разница: +75.82
60 Разница: +1 ru smth 666 278 2.40 300 45.05% 11:12:18 1820.20 Разница: +653.02
475 Разница: +1 ir arbab 113 295 0.38 61 53.98% 11:06:01 438.29 Разница: +38.48
294 Разница: +1 de GROOT 186 199 0.93 248 133.33% 11:05:05 701.89 Разница: +16.62
589 Разница: +2 tn 1 0 3 106 345 0.31 53 50.00% 11:04:53 359.98 Разница: +5.42
901 Разница: -1 in A 163 262 0.62 314 192.64% 11:03:02 211.37 Разница: -1.08
774 Разница: +3 us MisFits 81 160 0.51 99 122.22% 11:00:24 262.66 Разница: +13.48
512 Разница: +2 ca fafa 72 141 0.51 191 265.28% 10:58:03 410.56 Разница: +21.62
194 Разница: +1 dz The Criminal 427 266 1.61 220 51.52% 10:47:31 994.40 Разница: -44.70
108 Разница: +1 gb HoT Headshot 440 276 1.59 305 69.32% 10:41:18 1405.98 Разница: +91.43
210 Разница: +1 de KlinGonE 1stGeneRatioN 603 236 2.56 591 98.01% 10:40:44 920.26 без изменений
283 Разница: +2 me CR4ZY^An3$ 238 210 1.13 383 160.92% 10:40:26 723.05 Разница: +2.00
818 Разница: -1 ru Осминог 53 90 0.59 66 124.53% 10:28:46 242.33 Разница: +4.41
510 Разница: +2 si riba1122 135 330 0.41 90 66.67% 10:24:56 411.67 Разница: -58.51
152 Разница: +1 de Cleaner 320 190 1.68 174 54.38% 10:05:47 1138.53 Разница: +35.04
371 Разница: +2 jo NoBaNi 151 213 0.71 141 93.38% 09:58:40 566.18 Разница: +5.68
372 Разница: +3 gr LEFTERIS_GREECE 144 234 0.62 141 97.92% 09:57:14 562.12 Разница: +6.86
407 Разница: +3 ir MohammadReza 135 136 0.99 357 264.44% 09:51:48 515.47 без изменений
285 Разница: +1 ru О.У.К.Б 232 298 0.78 116 50.00% 09:41:59 717.75 Разница: +22.55
192 Разница: +1 gr QuavoHuncho 397 249 1.59 305 76.83% 09:33:07 1003.11 Разница: +34.49
1442 Разница: +1 ru gamer 23 89 0.26 38 165.22% 09:30:56 120.52 Разница: -7.77
335 Разница: +1 ir Newbie 187 141 1.33 314 167.91% 09:28:30 624.43 Разница: -6.00
288 Разница: +1 my Mike 299 244 1.23 298 99.67% 09:27:58 712.35 Разница: -2.00
141 Разница: +1 tr Fee* 369 248 1.49 123 33.33% 09:25:20 1196.04 Разница: +8.23
418 Разница: +3 pk Ibtihaj 155 322 0.48 59 38.06% 09:22:37 503.16 без изменений
173 Разница: +1 dz 39.gif ꧁༒Crazy_King༒꧂Vip 341 215 1.59 126 36.95% 09:21:53 1060.12 Разница: +105.55
292 Разница: +1 dz aziz 218 331 0.66 87 39.91% 09:21:51 702.62 Разница: +12.36
395 Разница: +3 hu misi_kator 155 136 1.14 232 149.68% 09:21:31 531.32 без изменений
161 Разница: +1 rs SPEED 91 389 321 1.21 181 46.53% 09:20:00 1099.99 Разница: +16.01
84 Разница: +1 gr Zephiov` 566 222 2.55 286 50.53% 09:19:18 1576.56 Разница: +16.15
290 Разница: +1 by .LOS 224 293 0.76 92 41.07% 09:16:25 707.27 Разница: +8.11
442 Разница: +1 dz badis 90 121 297 0.41 69 57.02% 09:13:19 469.03 Разница: -0.53
817 Разница: -1 mx SantiagoSSJ2 45 41 1.10 85 188.89% 09:06:39 243.31 Разница: +7.77
313 Разница: +1 ir Newbie 180 211 0.85 142 78.89% 09:04:24 671.20 без изменений
379 Разница: +3 ps MOGRAM:) 142 270 0.53 47 33.10% 09:03:57 548.89 Разница: -2.00
905 Разница: -1 tr ugurndrr 45 118 0.38 73 162.22% 09:01:50 210.38 Разница: -20.78
117 Разница: +1 lv test 447 293 1.53 148 33.11% 09:01:35 1318.71 без изменений
253 Разница: +1 al E Dello Spirito Santos 224 293 0.76 93 41.52% 09:00:30 816.26 Разница: +236.23
178 Разница: +1 dz Kacem 388 300 1.29 139 35.82% 08:58:13 1048.39 Разница: +11.12
232 Разница: +1 de Terror Duck 224 161 1.39 261 116.52% 08:56:17 859.70 Разница: -2.57
245 Разница: -1 ru <<< Palych >>> 232 245 0.95 80 34.48% 08:46:51 840.22 Разница: +141.45
537 Разница: +2 ir Luna 171 257 0.67 244 142.69% 08:43:07 391.94 Разница: -27.25
524 Разница: +2 ir Dazai_san 227 272 0.83 395 174.01% 08:41:38 404.66 Разница: -16.68
783 Разница: -1 ua igothooooooooo 74 244 0.30 65 87.84% 08:41:35 257.81 Разница: -5.67
45 Разница: +1 hu asd 752 203 3.70 277 36.84% 08:36:04 2039.73 Разница: +51.95
712 Разница: +3 hr Korisnik 86 129 0.67 89 103.49% 08:31:01 286.03 Разница: +20.40
504 Разница: +1 fr J 176 265 0.66 246 139.77% 08:30:25 418.81 без изменений
263 Разница: +2 hu Boby913 204 264 0.77 122 59.80% 08:19:46 773.73 Разница: +4.01
301 Разница: +1 dz @Nii 185 233 0.79 78 42.16% 08:15:50 689.22 без изменений
497 Разница: +1 gr EnergyNet 108 177 0.61 95 87.96% 08:15:06 421.28 без изменений
921 Разница: -1 ir raki 29 58 0.50 98 337.93% 08:05:28 205.48 без изменений
564 Разница: +2 cz volume cz 145 168 0.86 254 175.17% 08:03:34 371.78 Разница: -8.73
1150 Разница: +1 mx Valokbron47 37 40 0.92 125 337.84% 08:03:19 157.94 Разница: +26.95
443 Разница: +1 si GURU 97 253 0.38 38 39.18% 07:56:31 468.22 Разница: -0.23
164 Разница: +1 se Moukoko 351 244 1.44 176 50.14% 07:53:55 1091.16 Разница: +19.57
531 Разница: +2 user 59 121 0.49 63 106.78% 07:52:56 398.54 Разница: +77.56
196 Разница: +1 ma MR.Discovery 261 200 1.30 71 27.20% 07:52:39 981.81 Разница: +44.63
452 Разница: +1 rs Mrki 135 270 0.50 48 35.56% 07:46:30 458.29 Разница: +7.40
411 Разница: +3 hr EntoD 121 209 0.58 44 36.36% 07:42:13 511.77 Разница: -4.41
123 Разница: +1 pl Triada|bybluk 402 196 2.05 187 46.52% 07:41:52 1278.87 Разница: -8.20
311 Разница: +1 rs kun10 215 241 0.89 110 51.16% 07:41:46 672.03 без изменений
599 Разница: +2 ec KRISTOFER 61 49 1.24 101 165.57% 07:40:45 351.65 без изменений
416 Разница: +3 it pino87451 137 221 0.62 53 38.69% 07:32:33 509.42 Разница: -0.31
349 Разница: +1 de Vindar 153 267 0.57 55 35.95% 07:29:28 609.35 Разница: +47.45
317 Разница: +1 rs Razbijac_Muda 174 214 0.81 61 35.06% 07:18:54 661.09 Разница: +39.53
238 Разница: +1 bg Legolas 249 222 1.12 88 35.34% 07:16:52 847.33 Разница: +0.16
111 Разница: +1 no 3Jl0u* 334 173 1.93 78 23.35% 07:14:05 1373.61 Разница: +76.67
820 Разница: -1 in prathamesh 007 42 144 0.29 63 150.00% 07:08:56 241.29 Разница: +5.75
566 Разница: +2 dz 2019 72 126 0.57 62 86.11% 07:05:56 371.05 Разница: +44.27
635 Разница: +2 dz Tsm8 88 140 0.63 132 150.00% 07:04:54 323.85 без изменений
242 Разница: -1 dz anouch mafia 206 147 1.40 67 32.52% 06:59:47 843.71 Разница: -15.22